sensor_id;sensor_type;location;lat;lon;timestamp;temperature;humidity
32476;DHT22;18929;48.008;10.882;2023-03-11T00:01:14;3.70;99.90
32476;DHT22;18929;48.008;10.882;2023-03-11T00:03:44;4.10;99.90
32476;DHT22;18929;48.008;10.882;2023-03-11T00:06:11;4.50;99.90
32476;DHT22;18929;48.008;10.882;2023-03-11T00:08:39;4.20;99.90
32476;DHT22;18929;48.008;10.882;2023-03-11T00:11:06;3.70;99.90
32476;DHT22;18929;48.008;10.882;2023-03-11T00:13:33;4.10;99.90
32476;DHT22;18929;48.008;10.882;2023-03-11T00:16:01;4.00;99.90
32476;DHT22;18929;48.008;10.882;2023-03-11T00:18:29;4.00;99.90
32476;DHT22;18929;48.008;10.882;2023-03-11T00:20:56;4.10;99.90
32476;DHT22;18929;48.008;10.882;2023-03-11T00:23:24;4.30;99.90
32476;DHT22;18929;48.008;10.882;2023-03-11T00:28:40;4.50;99.90
32476;DHT22;18929;48.008;10.882;2023-03-11T00:31:07;3.90;99.90
32476;DHT22;18929;48.008;10.882;2023-03-11T00:33:35;4.60;99.90
32476;DHT22;18929;48.008;10.882;2023-03-11T00:36:02;4.00;99.90
32476;DHT22;18929;48.008;10.882;2023-03-11T00:38:30;4.50;99.90
32476;DHT22;18929;48.008;10.882;2023-03-11T00:40:57;4.40;99.90
32476;DHT22;18929;48.008;10.882;2023-03-11T00:43:26;4.40;99.90
32476;DHT22;18929;48.008;10.882;2023-03-11T00:45:52;4.50;99.90
32476;DHT22;18929;48.008;10.882;2023-03-11T00:48:19;4.30;99.90
32476;DHT22;18929;48.008;10.882;2023-03-11T00:50:47;4.00;99.90
32476;DHT22;18929;48.008;10.882;2023-03-11T00:53:15;4.40;99.90
32476;DHT22;18929;48.008;10.882;2023-03-11T00:55:41;4.60;99.90
32476;DHT22;18929;48.008;10.882;2023-03-11T00:58:09;4.40;99.90
32476;DHT22;18929;48.008;10.882;2023-03-11T01:00:36;4.50;99.90
32476;DHT22;18929;48.008;10.882;2023-03-11T01:03:03;4.40;99.90
32476;DHT22;18929;48.008;10.882;2023-03-11T01:05:31;4.70;99.90
32476;DHT22;18929;48.008;10.882;2023-03-11T01:08:00;4.50;99.90
32476;DHT22;18929;48.008;10.882;2023-03-11T01:10:27;4.40;99.90
32476;DHT22;18929;48.008;10.882;2023-03-11T01:12:54;3.80;99.90
32476;DHT22;18929;48.008;10.882;2023-03-11T01:15:21;3.90;99.90
32476;DHT22;18929;48.008;10.882;2023-03-11T01:17:48;4.00;99.90
32476;DHT22;18929;48.008;10.882;2023-03-11T01:20:15;4.00;99.90
32476;DHT22;18929;48.008;10.882;2023-03-11T01:22:42;3.40;99.90
32476;DHT22;18929;48.008;10.882;2023-03-11T01:25:13;3.60;99.90
32476;DHT22;18929;48.008;10.882;2023-03-11T01:27:40;3.90;99.90
32476;DHT22;18929;48.008;10.882;2023-03-11T01:30:07;3.40;99.90
32476;DHT22;18929;48.008;10.882;2023-03-11T01:32:34;3.30;99.90
32476;DHT22;18929;48.008;10.882;2023-03-11T01:35:01;3.90;99.90
32476;DHT22;18929;48.008;10.882;2023-03-11T01:37:28;3.90;99.90
32476;DHT22;18929;48.008;10.882;2023-03-11T01:39:55;3.80;99.90
32476;DHT22;18929;48.008;10.882;2023-03-11T01:42:23;4.00;99.90
32476;DHT22;18929;48.008;10.882;2023-03-11T01:44:50;4.00;99.90
32476;DHT22;18929;48.008;10.882;2023-03-11T01:47:36;4.40;99.90
32476;DHT22;18929;48.008;10.882;2023-03-11T01:50:04;4.20;99.90
32476;DHT22;18929;48.008;10.882;2023-03-11T01:52:32;4.10;99.90
32476;DHT22;18929;48.008;10.882;2023-03-11T01:54:59;3.70;99.90
32476;DHT22;18929;48.008;10.882;2023-03-11T01:57:27;3.50;99.90
32476;DHT22;18929;48.008;10.882;2023-03-11T01:59:55;3.60;99.90
32476;DHT22;18929;48.008;10.882;2023-03-11T02:02:22;3.70;99.90
32476;DHT22;18929;48.008;10.882;2023-03-11T02:04:51;3.70;99.90
32476;DHT22;18929;48.008;10.882;2023-03-11T02:07:18;4.10;99.90
32476;DHT22;18929;48.008;10.882;2023-03-11T02:09:45;4.10;99.90
32476;DHT22;18929;48.008;10.882;2023-03-11T02:12:12;4.10;99.90
32476;DHT22;18929;48.008;10.882;2023-03-11T02:17:27;3.70;99.90
32476;DHT22;18929;48.008;10.882;2023-03-11T02:20:11;3.90;99.90
32476;DHT22;18929;48.008;10.882;2023-03-11T02:22:40;4.10;99.90
32476;DHT22;18929;48.008;10.882;2023-03-11T02:25:09;4.30;99.90
32476;DHT22;18929;48.008;10.882;2023-03-11T02:27:39;4.50;99.90
32476;DHT22;18929;48.008;10.882;2023-03-11T02:30:07;4.20;99.90
32476;DHT22;18929;48.008;10.882;2023-03-11T02:32:35;4.00;99.90
32476;DHT22;18929;48.008;10.882;2023-03-11T02:35:02;3.60;99.90
32476;DHT22;18929;48.008;10.882;2023-03-11T02:37:29;3.90;99.90
32476;DHT22;18929;48.008;10.882;2023-03-11T02:40:14;4.30;99.90
32476;DHT22;18929;48.008;10.882;2023-03-11T02:42:50;3.90;99.90
32476;DHT22;18929;48.008;10.882;2023-03-11T02:45:17;4.00;99.90
32476;DHT22;18929;48.008;10.882;2023-03-11T02:47:45;3.60;99.90
32476;DHT22;18929;48.008;10.882;2023-03-11T02:50:13;4.20;99.90
32476;DHT22;18929;48.008;10.882;2023-03-11T02:52:41;4.30;99.90
32476;DHT22;18929;48.008;10.882;2023-03-11T02:55:08;4.00;99.90
32476;DHT22;18929;48.008;10.882;2023-03-11T02:57:36;3.90;99.90
32476;DHT22;18929;48.008;10.882;2023-03-11T03:00:05;4.00;99.90
32476;DHT22;18929;48.008;10.882;2023-03-11T03:02:39;4.20;99.90
32476;DHT22;18929;48.008;10.882;2023-03-11T03:05:06;4.50;99.90
32476;DHT22;18929;48.008;10.882;2023-03-11T03:07:33;4.20;99.90
32476;DHT22;18929;48.008;10.882;2023-03-11T03:10:00;3.70;99.90
32476;DHT22;18929;48.008;10.882;2023-03-11T03:12:26;4.10;99.90
32476;DHT22;18929;48.008;10.882;2023-03-11T03:14:56;3.80;99.90
32476;DHT22;18929;48.008;10.882;2023-03-11T03:17:24;4.00;99.90
32476;DHT22;18929;48.008;10.882;2023-03-11T03:19:51;4.10;99.90
32476;DHT22;18929;48.008;10.882;2023-03-11T03:22:18;3.70;99.90
32476;DHT22;18929;48.008;10.882;2023-03-11T03:24:45;3.70;99.90
32476;DHT22;18929;48.008;10.882;2023-03-11T03:27:11;3.20;99.90
32476;DHT22;18929;48.008;10.882;2023-03-11T03:29:38;3.60;99.90
32476;DHT22;18929;48.008;10.882;2023-03-11T03:32:05;3.30;99.90
32476;DHT22;18929;48.008;10.882;2023-03-11T03:34:34;3.70;99.90
32476;DHT22;18929;48.008;10.882;2023-03-11T03:37:01;3.70;99.90
32476;DHT22;18929;48.008;10.882;2023-03-11T03:39:28;3.20;99.90
32476;DHT22;18929;48.008;10.882;2023-03-11T03:41:55;3.60;99.90
32476;DHT22;18929;48.008;10.882;2023-03-11T03:44:22;3.70;99.90
32476;DHT22;18929;48.008;10.882;2023-03-11T03:46:48;3.40;99.90
32476;DHT22;18929;48.008;10.882;2023-03-11T03:49:15;3.80;99.90
32476;DHT22;18929;48.008;10.882;2023-03-11T03:51:43;3.20;99.90
32476;DHT22;18929;48.008;10.882;2023-03-11T03:54:10;2.60;99.90
32476;DHT22;18929;48.008;10.882;2023-03-11T03:56:37;3.40;99.90
32476;DHT22;18929;48.008;10.882;2023-03-11T03:59:04;3.00;99.90
32476;DHT22;18929;48.008;10.882;2023-03-11T04:01:31;3.70;99.90
32476;DHT22;18929;48.008;10.882;2023-03-11T04:03:58;3.40;99.90
32476;DHT22;18929;48.008;10.882;2023-03-11T04:06:25;3.60;99.90
32476;DHT22;18929;48.008;10.882;2023-03-11T04:08:54;3.00;99.90
32476;DHT22;18929;48.008;10.882;2023-03-11T04:11:20;3.40;99.90
32476;DHT22;18929;48.008;10.882;2023-03-11T04:13:47;3.40;99.90
32476;DHT22;18929;48.008;10.882;2023-03-11T04:16:15;3.40;99.90
32476;DHT22;18929;48.008;10.882;2023-03-11T04:18:42;3.30;99.90
32476;DHT22;18929;48.008;10.882;2023-03-11T04:21:09;2.90;99.90
32476;DHT22;18929;48.008;10.882;2023-03-11T04:23:35;3.20;99.90
32476;DHT22;18929;48.008;10.882;2023-03-11T04:26:04;3.20;99.90
32476;DHT22;18929;48.008;10.882;2023-03-11T04:28:30;3.40;99.90
32476;DHT22;18929;48.008;10.882;2023-03-11T04:30:57;3.20;99.90
32476;DHT22;18929;48.008;10.882;2023-03-11T04:33:24;3.30;99.90
32476;DHT22;18929;48.008;10.882;2023-03-11T04:35:51;3.00;99.90
32476;DHT22;18929;48.008;10.882;2023-03-11T04:38:17;3.20;99.90
32476;DHT22;18929;48.008;10.882;2023-03-11T04:40:44;3.10;99.90
32476;DHT22;18929;48.008;10.882;2023-03-11T04:43:12;3.10;99.90
32476;DHT22;18929;48.008;10.882;2023-03-11T04:45:39;2.80;99.90
32476;DHT22;18929;48.008;10.882;2023-03-11T04:48:06;2.90;99.90
32476;DHT22;18929;48.008;10.882;2023-03-11T04:50:35;3.20;99.90
32476;DHT22;18929;48.008;10.882;2023-03-11T04:53:02;3.30;99.90
32476;DHT22;18929;48.008;10.882;2023-03-11T04:55:28;2.80;99.90
32476;DHT22;18929;48.008;10.882;2023-03-11T04:57:55;2.80;99.90
32476;DHT22;18929;48.008;10.882;2023-03-11T05:00:23;2.80;99.90
32476;DHT22;18929;48.008;10.882;2023-03-11T05:02:50;3.00;99.90
32476;DHT22;18929;48.008;10.882;2023-03-11T05:05:17;3.40;99.90
32476;DHT22;18929;48.008;10.882;2023-03-11T05:07:44;3.40;99.90
32476;DHT22;18929;48.008;10.882;2023-03-11T05:10:11;3.00;99.90
32476;DHT22;18929;48.008;10.882;2023-03-11T05:12:38;3.10;99.90
32476;DHT22;18929;48.008;10.882;2023-03-11T05:15:05;3.10;99.90
32476;DHT22;18929;48.008;10.882;2023-03-11T05:17:34;3.20;99.90
32476;DHT22;18929;48.008;10.882;2023-03-11T05:20:01;3.50;99.90
32476;DHT22;18929;48.008;10.882;2023-03-11T05:22:32;3.10;99.90
32476;DHT22;18929;48.008;10.882;2023-03-11T05:24:59;2.90;99.90
32476;DHT22;18929;48.008;10.882;2023-03-11T05:27:25;2.60;99.90
32476;DHT22;18929;48.008;10.882;2023-03-11T05:29:53;2.60;99.90
32476;DHT22;18929;48.008;10.882;2023-03-11T05:32:19;2.50;99.90
32476;DHT22;18929;48.008;10.882;2023-03-11T05:34:48;2.50;99.90
32476;DHT22;18929;48.008;10.882;2023-03-11T05:37:15;2.50;99.90
32476;DHT22;18929;48.008;10.882;2023-03-11T05:39:41;3.10;99.90
32476;DHT22;18929;48.008;10.882;2023-03-11T05:42:08;3.30;99.90
32476;DHT22;18929;48.008;10.882;2023-03-11T05:44:36;3.30;99.90
32476;DHT22;18929;48.008;10.882;2023-03-11T05:47:03;3.40;99.90
32476;DHT22;18929;48.008;10.882;2023-03-11T05:49:30;2.60;99.90
32476;DHT22;18929;48.008;10.882;2023-03-11T05:51:58;2.80;99.90
32476;DHT22;18929;48.008;10.882;2023-03-11T05:54:25;3.00;99.90
32476;DHT22;18929;48.008;10.882;2023-03-11T05:56:51;2.80;99.90
32476;DHT22;18929;48.008;10.882;2023-03-11T05:59:18;2.90;99.90
32476;DHT22;18929;48.008;10.882;2023-03-11T06:01:52;3.00;99.90
32476;DHT22;18929;48.008;10.882;2023-03-11T06:04:19;3.10;99.90
32476;DHT22;18929;48.008;10.882;2023-03-11T06:06:46;3.10;99.90
32476;DHT22;18929;48.008;10.882;2023-03-11T06:09:14;2.90;99.90
32476;DHT22;18929;48.008;10.882;2023-03-11T06:11:41;2.60;99.90
32476;DHT22;18929;48.008;10.882;2023-03-11T06:14:09;2.90;99.90
32476;DHT22;18929;48.008;10.882;2023-03-11T06:16:36;2.80;99.90
32476;DHT22;18929;48.008;10.882;2023-03-11T06:19:03;2.50;99.90
32476;DHT22;18929;48.008;10.882;2023-03-11T06:21:29;2.80;99.90
32476;DHT22;18929;48.008;10.882;2023-03-11T06:23:57;2.70;99.90
32476;DHT22;18929;48.008;10.882;2023-03-11T06:26:25;2.60;99.90
32476;DHT22;18929;48.008;10.882;2023-03-11T06:28:52;2.70;99.90
32476;DHT22;18929;48.008;10.882;2023-03-11T06:31:19;2.70;99.90
32476;DHT22;18929;48.008;10.882;2023-03-11T06:33:48;3.20;99.90
32476;DHT22;18929;48.008;10.882;2023-03-11T06:36:15;3.30;99.90
32476;DHT22;18929;48.008;10.882;2023-03-11T06:38:42;2.90;99.90
32476;DHT22;18929;48.008;10.882;2023-03-11T06:41:11;3.20;99.90
32476;DHT22;18929;48.008;10.882;2023-03-11T06:43:39;3.40;99.90
32476;DHT22;18929;48.008;10.882;2023-03-11T06:46:09;3.50;99.90
32476;DHT22;18929;48.008;10.882;2023-03-11T06:48:36;2.70;99.90
32476;DHT22;18929;48.008;10.882;2023-03-11T06:51:03;3.10;99.90
32476;DHT22;18929;48.008;10.882;2023-03-11T06:53:33;2.50;99.90
32476;DHT22;18929;48.008;10.882;2023-03-11T06:56:00;2.10;99.90
32476;DHT22;18929;48.008;10.882;2023-03-11T06:58:27;2.30;99.90
32476;DHT22;18929;48.008;10.882;2023-03-11T07:01:03;2.50;99.90
32476;DHT22;18929;48.008;10.882;2023-03-11T07:03:30;2.60;99.90
32476;DHT22;18929;48.008;10.882;2023-03-11T07:05:57;2.30;99.90
32476;DHT22;18929;48.008;10.882;2023-03-11T07:08:24;2.00;99.90
32476;DHT22;18929;48.008;10.882;2023-03-11T07:11:01;1.90;99.90
32476;DHT22;18929;48.008;10.882;2023-03-11T07:13:28;2.10;99.90
32476;DHT22;18929;48.008;10.882;2023-03-11T07:16:06;2.20;99.90
32476;DHT22;18929;48.008;10.882;2023-03-11T07:18:33;2.00;99.90
32476;DHT22;18929;48.008;10.882;2023-03-11T07:21:00;2.10;99.90
32476;DHT22;18929;48.008;10.882;2023-03-11T07:23:27;2.20;99.90
32476;DHT22;18929;48.008;10.882;2023-03-11T07:25:54;2.30;99.90
32476;DHT22;18929;48.008;10.882;2023-03-11T07:28:21;1.80;99.90
32476;DHT22;18929;48.008;10.882;2023-03-11T07:30:48;2.10;99.90
32476;DHT22;18929;48.008;10.882;2023-03-11T07:33:16;1.80;99.90
32476;DHT22;18929;48.008;10.882;2023-03-11T07:35:43;2.20;99.90
32476;DHT22;18929;48.008;10.882;2023-03-11T07:38:10;1.60;99.90
32476;DHT22;18929;48.008;10.882;2023-03-11T07:40:37;1.60;99.90
32476;DHT22;18929;48.008;10.882;2023-03-11T07:43:03;1.70;99.90
32476;DHT22;18929;48.008;10.882;2023-03-11T07:45:30;1.70;99.90
32476;DHT22;18929;48.008;10.882;2023-03-11T07:47:57;2.20;99.90
32476;DHT22;18929;48.008;10.882;2023-03-11T07:50:25;2.20;99.90
32476;DHT22;18929;48.008;10.882;2023-03-11T07:52:52;1.90;99.90
32476;DHT22;18929;48.008;10.882;2023-03-11T07:55:19;2.50;99.90
32476;DHT22;18929;48.008;10.882;2023-03-11T07:57:46;2.00;99.90
32476;DHT22;18929;48.008;10.882;2023-03-11T08:00:20;1.80;99.90
32476;DHT22;18929;48.008;10.882;2023-03-11T08:02:47;2.40;99.90
32476;DHT22;18929;48.008;10.882;2023-03-11T08:05:13;2.30;99.90
32476;DHT22;18929;48.008;10.882;2023-03-11T08:07:42;2.50;99.90
32476;DHT22;18929;48.008;10.882;2023-03-11T08:10:09;2.20;99.90
32476;DHT22;18929;48.008;10.882;2023-03-11T08:12:36;1.40;99.90
32476;DHT22;18929;48.008;10.882;2023-03-11T08:15:03;1.80;99.90
32476;DHT22;18929;48.008;10.882;2023-03-11T08:17:30;2.10;99.90
32476;DHT22;18929;48.008;10.882;2023-03-11T08:22:44;1.90;99.90
32476;DHT22;18929;48.008;10.882;2023-03-11T08:25:10;2.20;99.90
32476;DHT22;18929;48.008;10.882;2023-03-11T08:27:37;2.00;99.90
32476;DHT22;18929;48.008;10.882;2023-03-11T08:30:11;2.20;99.90
32476;DHT22;18929;48.008;10.882;2023-03-11T08:32:39;2.20;99.90
32476;DHT22;18929;48.008;10.882;2023-03-11T08:35:12;2.30;99.90
32476;DHT22;18929;48.008;10.882;2023-03-11T08:37:39;2.40;99.90
32476;DHT22;18929;48.008;10.882;2023-03-11T08:40:08;2.00;99.90
32476;DHT22;18929;48.008;10.882;2023-03-11T08:42:35;2.20;99.90
32476;DHT22;18929;48.008;10.882;2023-03-11T08:45:02;2.60;99.90
32476;DHT22;18929;48.008;10.882;2023-03-11T08:47:32;2.60;99.90
32476;DHT22;18929;48.008;10.882;2023-03-11T08:49:59;2.00;99.90
32476;DHT22;18929;48.008;10.882;2023-03-11T08:52:25;1.50;99.90
32476;DHT22;18929;48.008;10.882;2023-03-11T08:54:52;1.90;99.90
32476;DHT22;18929;48.008;10.882;2023-03-11T08:57:20;1.60;99.90
32476;DHT22;18929;48.008;10.882;2023-03-11T08:59:50;1.90;99.90
32476;DHT22;18929;48.008;10.882;2023-03-11T09:02:17;1.90;99.90
32476;DHT22;18929;48.008;10.882;2023-03-11T09:04:44;2.10;99.90
32476;DHT22;18929;48.008;10.882;2023-03-11T09:07:16;1.90;99.90
32476;DHT22;18929;48.008;10.882;2023-03-11T09:09:43;2.10;99.90
32476;DHT22;18929;48.008;10.882;2023-03-11T09:12:10;2.10;99.90
32476;DHT22;18929;48.008;10.882;2023-03-11T09:14:40;2.30;99.90
32476;DHT22;18929;48.008;10.882;2023-03-11T09:17:06;2.00;99.90
32476;DHT22;18929;48.008;10.882;2023-03-11T09:19:33;2.30;99.90
32476;DHT22;18929;48.008;10.882;2023-03-11T09:22:00;2.00;99.90
32476;DHT22;18929;48.008;10.882;2023-03-11T09:24:27;2.00;99.90
32476;DHT22;18929;48.008;10.882;2023-03-11T09:26:54;2.30;99.90
32476;DHT22;18929;48.008;10.882;2023-03-11T09:29:21;2.30;99.90
32476;DHT22;18929;48.008;10.882;2023-03-11T09:31:49;2.50;99.90
32476;DHT22;18929;48.008;10.882;2023-03-11T09:34:16;2.60;99.90
32476;DHT22;18929;48.008;10.882;2023-03-11T09:36:43;2.70;99.90
32476;DHT22;18929;48.008;10.882;2023-03-11T09:39:10;2.50;99.90
32476;DHT22;18929;48.008;10.882;2023-03-11T09:41:37;2.60;99.90
32476;DHT22;18929;48.008;10.882;2023-03-11T09:44:11;2.60;99.90
32476;DHT22;18929;48.008;10.882;2023-03-11T09:49:23;2.70;99.90
32476;DHT22;18929;48.008;10.882;2023-03-11T09:51:55;2.50;99.90
32476;DHT22;18929;48.008;10.882;2023-03-11T09:54:23;2.50;99.90
32476;DHT22;18929;48.008;10.882;2023-03-11T09:56:53;2.50;99.90
32476;DHT22;18929;48.008;10.882;2023-03-11T09:59:22;2.60;99.90
32476;DHT22;18929;48.008;10.882;2023-03-11T10:01:52;2.40;99.90
32476;DHT22;18929;48.008;10.882;2023-03-11T10:04:20;2.40;99.90
32476;DHT22;18929;48.008;10.882;2023-03-11T10:06:50;2.40;99.90
32476;DHT22;18929;48.008;10.882;2023-03-11T10:09:32;2.60;99.90
32476;DHT22;18929;48.008;10.882;2023-03-11T10:12:02;2.30;99.90
32476;DHT22;18929;48.008;10.882;2023-03-11T10:14:41;2.50;99.90
32476;DHT22;18929;48.008;10.882;2023-03-11T10:17:14;2.50;99.90
32476;DHT22;18929;48.008;10.882;2023-03-11T10:19:45;2.80;99.90
32476;DHT22;18929;48.008;10.882;2023-03-11T10:22:18;2.90;99.90
32476;DHT22;18929;48.008;10.882;2023-03-11T10:24:55;2.80;99.90
32476;DHT22;18929;48.008;10.882;2023-03-11T10:27:24;3.00;99.90
32476;DHT22;18929;48.008;10.882;2023-03-11T10:29:55;3.20;99.90
32476;DHT22;18929;48.008;10.882;2023-03-11T10:32:24;2.90;99.90
32476;DHT22;18929;48.008;10.882;2023-03-11T10:34:55;2.80;99.90
32476;DHT22;18929;48.008;10.882;2023-03-11T10:37:25;2.80;99.90
32476;DHT22;18929;48.008;10.882;2023-03-11T10:39:53;2.90;99.90
32476;DHT22;18929;48.008;10.882;2023-03-11T10:42:21;3.00;99.90
32476;DHT22;18929;48.008;10.882;2023-03-11T10:44:49;2.90;99.90
32476;DHT22;18929;48.008;10.882;2023-03-11T10:47:17;2.90;99.90
32476;DHT22;18929;48.008;10.882;2023-03-11T10:49:44;2.90;99.90
32476;DHT22;18929;48.008;10.882;2023-03-11T10:52:11;3.10;99.90
32476;DHT22;18929;48.008;10.882;2023-03-11T10:54:40;3.00;99.90
32476;DHT22;18929;48.008;10.882;2023-03-11T10:57:20;3.10;99.90
32476;DHT22;18929;48.008;10.882;2023-03-11T10:59:49;3.40;99.90
32476;DHT22;18929;48.008;10.882;2023-03-11T11:02:24;3.20;99.90
32476;DHT22;18929;48.008;10.882;2023-03-11T11:05:02;3.20;99.90
32476;DHT22;18929;48.008;10.882;2023-03-11T11:07:30;3.00;99.90
32476;DHT22;18929;48.008;10.882;2023-03-11T11:10:11;2.80;99.90
32476;DHT22;18929;48.008;10.882;2023-03-11T11:12:40;3.20;99.90
32476;DHT22;18929;48.008;10.882;2023-03-11T11:15:19;3.10;99.90
32476;DHT22;18929;48.008;10.882;2023-03-11T11:17:46;2.80;99.90
32476;DHT22;18929;48.008;10.882;2023-03-11T11:20:14;3.00;99.90
32476;DHT22;18929;48.008;10.882;2023-03-11T11:22:46;3.20;99.90
32476;DHT22;18929;48.008;10.882;2023-03-11T11:25:30;3.10;99.90
32476;DHT22;18929;48.008;10.882;2023-03-11T11:27:59;3.20;99.90
32476;DHT22;18929;48.008;10.882;2023-03-11T11:30:27;2.90;99.90
32476;DHT22;18929;48.008;10.882;2023-03-11T11:32:54;2.90;99.90
32476;DHT22;18929;48.008;10.882;2023-03-11T11:35:21;3.00;99.90
32476;DHT22;18929;48.008;10.882;2023-03-11T11:37:50;2.90;99.90
32476;DHT22;18929;48.008;10.882;2023-03-11T11:40:24;3.30;99.90
32476;DHT22;18929;48.008;10.882;2023-03-11T11:42:53;3.50;99.90
32476;DHT22;18929;48.008;10.882;2023-03-11T11:48:35;3.50;99.90
32476;DHT22;18929;48.008;10.882;2023-03-11T11:51:09;3.50;99.90
32476;DHT22;18929;48.008;10.882;2023-03-11T11:53:40;3.30;99.90
32476;DHT22;18929;48.008;10.882;2023-03-11T11:56:07;3.20;99.90
32476;DHT22;18929;48.008;10.882;2023-03-11T11:58:35;3.50;99.90
32476;DHT22;18929;48.008;10.882;2023-03-11T12:01:06;3.50;99.90
32476;DHT22;18929;48.008;10.882;2023-03-11T12:06:26;3.60;99.90
32476;DHT22;18929;48.008;10.882;2023-03-11T12:08:58;3.80;99.90
32476;DHT22;18929;48.008;10.882;2023-03-11T12:11:31;4.10;99.90
32476;DHT22;18929;48.008;10.882;2023-03-11T12:14:03;3.70;99.90
32476;DHT22;18929;48.008;10.882;2023-03-11T12:16:38;3.40;99.90
32476;DHT22;18929;48.008;10.882;2023-03-11T12:19:09;3.50;99.90
32476;DHT22;18929;48.008;10.882;2023-03-11T12:21:45;4.00;99.90
32476;DHT22;18929;48.008;10.882;2023-03-11T12:24:28;4.10;99.90
32476;DHT22;18929;48.008;10.882;2023-03-11T12:27:01;4.00;99.90
32476;DHT22;18929;48.008;10.882;2023-03-11T12:29:38;3.80;99.90
32476;DHT22;18929;48.008;10.882;2023-03-11T12:32:06;3.90;99.90
32476;DHT22;18929;48.008;10.882;2023-03-11T12:34:33;3.60;99.90
32476;DHT22;18929;48.008;10.882;2023-03-11T12:37:00;3.60;99.90
32476;DHT22;18929;48.008;10.882;2023-03-11T12:39:28;3.80;99.90
32476;DHT22;18929;48.008;10.882;2023-03-11T12:44:52;4.10;99.90
32476;DHT22;18929;48.008;10.882;2023-03-11T12:49:54;3.70;99.90
32476;DHT22;18929;48.008;10.882;2023-03-11T12:52:23;4.10;99.90
32476;DHT22;18929;48.008;10.882;2023-03-11T12:57:37;4.00;99.90
32476;DHT22;18929;48.008;10.882;2023-03-11T13:00:10;3.90;99.90
32476;DHT22;18929;48.008;10.882;2023-03-11T13:05:38;4.10;99.90
32476;DHT22;18929;48.008;10.882;2023-03-11T13:08:11;4.00;99.90
32476;DHT22;18929;48.008;10.882;2023-03-11T13:10:39;3.90;99.90
32476;DHT22;18929;48.008;10.882;2023-03-11T13:18:50;4.00;99.90
32476;DHT22;18929;48.008;10.882;2023-03-11T13:26:55;4.20;99.90
32476;DHT22;18929;48.008;10.882;2023-03-11T13:29:28;4.30;99.90
32476;DHT22;18929;48.008;10.882;2023-03-11T13:32:21;4.30;99.90
32476;DHT22;18929;48.008;10.882;2023-03-11T13:38:19;4.80;99.90
32476;DHT22;18929;48.008;10.882;2023-03-11T13:40:55;4.70;99.90
32476;DHT22;18929;48.008;10.882;2023-03-11T13:43:23;4.80;99.90
32476;DHT22;18929;48.008;10.882;2023-03-11T13:45:51;4.40;99.90
32476;DHT22;18929;48.008;10.882;2023-03-11T13:48:19;4.50;99.90
32476;DHT22;18929;48.008;10.882;2023-03-11T13:50:48;4.40;99.90
32476;DHT22;18929;48.008;10.882;2023-03-11T13:53:18;4.30;99.90
32476;DHT22;18929;48.008;10.882;2023-03-11T13:55:46;4.20;99.90
32476;DHT22;18929;48.008;10.882;2023-03-11T13:58:13;4.60;99.90
32476;DHT22;18929;48.008;10.882;2023-03-11T14:00:45;4.80;99.90
32476;DHT22;18929;48.008;10.882;2023-03-11T14:03:12;4.60;99.90
32476;DHT22;18929;48.008;10.882;2023-03-11T14:05:43;5.20;99.90
32476;DHT22;18929;48.008;10.882;2023-03-11T14:08:11;5.10;99.90
32476;DHT22;18929;48.008;10.882;2023-03-11T14:10:39;4.60;99.90
32476;DHT22;18929;48.008;10.882;2023-03-11T14:13:13;4.80;99.90
32476;DHT22;18929;48.008;10.882;2023-03-11T14:15:50;5.20;99.90
32476;DHT22;18929;48.008;10.882;2023-03-11T14:18:25;5.40;99.90
32476;DHT22;18929;48.008;10.882;2023-03-11T14:20:52;5.30;99.90
32476;DHT22;18929;48.008;10.882;2023-03-11T14:23:19;5.00;99.90
32476;DHT22;18929;48.008;10.882;2023-03-11T14:25:47;4.80;99.90
32476;DHT22;18929;48.008;10.882;2023-03-11T14:28:22;4.80;99.90
32476;DHT22;18929;48.008;10.882;2023-03-11T14:30:54;5.00;99.90
32476;DHT22;18929;48.008;10.882;2023-03-11T14:33:21;4.90;99.90
32476;DHT22;18929;48.008;10.882;2023-03-11T14:35:50;5.00;99.90
32476;DHT22;18929;48.008;10.882;2023-03-11T14:38:20;5.00;99.90
32476;DHT22;18929;48.008;10.882;2023-03-11T14:40:50;5.60;99.90
32476;DHT22;18929;48.008;10.882;2023-03-11T14:43:18;5.50;99.90
32476;DHT22;18929;48.008;10.882;2023-03-11T14:45:45;5.30;99.90
32476;DHT22;18929;48.008;10.882;2023-03-11T14:48:13;5.00;99.90
32476;DHT22;18929;48.008;10.882;2023-03-11T14:50:42;4.90;99.90
32476;DHT22;18929;48.008;10.882;2023-03-11T14:53:14;5.10;99.90
32476;DHT22;18929;48.008;10.882;2023-03-11T14:55:43;5.40;99.90
32476;DHT22;18929;48.008;10.882;2023-03-11T14:58:17;5.40;99.90
32476;DHT22;18929;48.008;10.882;2023-03-11T15:00:48;5.10;99.90
32476;DHT22;18929;48.008;10.882;2023-03-11T15:03:18;5.00;99.90
32476;DHT22;18929;48.008;10.882;2023-03-11T15:05:47;5.30;99.90
32476;DHT22;18929;48.008;10.882;2023-03-11T15:08:16;5.30;99.90
32476;DHT22;18929;48.008;10.882;2023-03-11T15:10:59;5.40;99.90
32476;DHT22;18929;48.008;10.882;2023-03-11T15:13:27;5.40;99.90
32476;DHT22;18929;48.008;10.882;2023-03-11T15:15:54;5.00;99.90
32476;DHT22;18929;48.008;10.882;2023-03-11T15:18:22;5.60;99.90
32476;DHT22;18929;48.008;10.882;2023-03-11T15:20:59;5.60;99.90
32476;DHT22;18929;48.008;10.882;2023-03-11T15:23:27;5.80;99.90
32476;DHT22;18929;48.008;10.882;2023-03-11T15:28:28;6.00;99.90
32476;DHT22;18929;48.008;10.882;2023-03-11T15:31:13;6.10;99.90
32476;DHT22;18929;48.008;10.882;2023-03-11T15:33:40;5.70;99.90
32476;DHT22;18929;48.008;10.882;2023-03-11T15:41:32;5.60;99.90
32476;DHT22;18929;48.008;10.882;2023-03-11T15:44:01;5.40;99.90
32476;DHT22;18929;48.008;10.882;2023-03-11T15:46:32;5.30;99.90
32476;DHT22;18929;48.008;10.882;2023-03-11T15:48:59;5.30;99.90
32476;DHT22;18929;48.008;10.882;2023-03-11T15:51:26;5.20;99.90
32476;DHT22;18929;48.008;10.882;2023-03-11T15:53:53;5.30;99.90
32476;DHT22;18929;48.008;10.882;2023-03-11T15:56:20;5.10;99.90
32476;DHT22;18929;48.008;10.882;2023-03-11T15:58:48;5.10;99.90
32476;DHT22;18929;48.008;10.882;2023-03-11T16:01:16;5.30;99.90
32476;DHT22;18929;48.008;10.882;2023-03-11T16:03:48;5.00;99.90
32476;DHT22;18929;48.008;10.882;2023-03-11T16:06:15;5.00;99.90
32476;DHT22;18929;48.008;10.882;2023-03-11T16:08:41;5.30;99.90
32476;DHT22;18929;48.008;10.882;2023-03-11T16:11:09;5.00;99.90
32476;DHT22;18929;48.008;10.882;2023-03-11T16:13:37;5.00;99.90
32476;DHT22;18929;48.008;10.882;2023-03-11T16:16:05;5.20;99.90
32476;DHT22;18929;48.008;10.882;2023-03-11T16:18:33;5.20;99.90
32476;DHT22;18929;48.008;10.882;2023-03-11T16:21:01;5.20;99.90
32476;DHT22;18929;48.008;10.882;2023-03-11T16:23:30;5.30;99.90
32476;DHT22;18929;48.008;10.882;2023-03-11T16:26:01;5.30;99.90
32476;DHT22;18929;48.008;10.882;2023-03-11T16:28:28;5.00;99.90
32476;DHT22;18929;48.008;10.882;2023-03-11T16:30:55;5.00;99.90